createdAt,value
2022-09-16T00:00:55.690Z,3.40
2022-09-16T00:03:22.752Z,3.80
2022-09-16T00:05:52.577Z,3.57
2022-09-16T00:08:20.448Z,3.77
2022-09-16T00:10:50.221Z,3.50
2022-09-16T00:13:17.984Z,3.93
2022-09-16T00:15:53.892Z,4.13
2022-09-16T00:18:20.644Z,4.00
2022-09-16T00:20:50.971Z,4.00
2022-09-16T00:23:18.980Z,3.70
2022-09-16T00:25:56.204Z,3.10
2022-09-16T00:28:26.478Z,3.60
2022-09-16T00:30:58.971Z,3.60
2022-09-16T00:33:25.958Z,3.80
2022-09-16T00:35:52.823Z,3.77
2022-09-16T00:38:19.861Z,4.03
2022-09-16T00:40:48.913Z,4.17
2022-09-16T00:43:19.034Z,4.10
2022-09-16T00:45:56.756Z,3.70
2022-09-16T00:48:27.880Z,4.00
2022-09-16T00:50:59.964Z,4.00
2022-09-16T00:53:42.733Z,3.60
2022-09-16T00:56:15.338Z,4.33
2022-09-16T00:59:02.332Z,3.90
2022-09-16T01:01:31.993Z,4.63
2022-09-16T01:04:04.375Z,4.17
2022-09-16T01:06:32.298Z,4.60
2022-09-16T01:09:00.605Z,4.73
2022-09-16T01:11:29.354Z,4.57
2022-09-16T01:14:16.613Z,3.93
2022-09-16T01:16:52.008Z,5.00
2022-09-16T01:19:39.962Z,4.30
2022-09-16T01:22:41.065Z,4.23
2022-09-16T01:25:15.672Z,4.60
2022-09-16T01:27:56.414Z,4.53
2022-09-16T01:30:29.322Z,4.90
2022-09-16T01:33:14.232Z,4.27
2022-09-16T01:35:58.290Z,4.37
2022-09-16T01:38:51.400Z,4.23
2022-09-16T01:41:33.334Z,4.80
2022-09-16T01:44:39.356Z,4.23
2022-09-16T01:47:18.593Z,4.10
2022-09-16T01:50:06.256Z,4.17
2022-09-16T01:52:36.863Z,4.23
2022-09-16T01:55:20.852Z,4.07
2022-09-16T01:57:57.269Z,3.80
2022-09-16T02:00:25.691Z,3.90
2022-09-16T02:03:03.960Z,3.87
2022-09-16T02:05:48.925Z,3.83
2022-09-16T02:08:22.798Z,3.83
2022-09-16T02:11:12.987Z,4.00
2022-09-16T02:13:44.655Z,4.07
2022-09-16T02:16:16.953Z,3.83
2022-09-16T02:18:51.850Z,3.90
2022-09-16T02:21:24.255Z,3.90
2022-09-16T02:23:57.818Z,3.60
2022-09-16T02:26:39.017Z,3.30
2022-09-16T02:29:18.793Z,3.77
2022-09-16T02:31:53.564Z,3.70
2022-09-16T02:34:34.141Z,3.43
2022-09-16T02:37:09.976Z,3.50
2022-09-16T02:39:41.682Z,3.17
2022-09-16T02:42:11.567Z,3.70
2022-09-16T02:44:39.697Z,3.43
2022-09-16T02:47:13.912Z,3.40
2022-09-16T02:50:01.095Z,3.20
2022-09-16T02:52:53.549Z,3.50
2022-09-16T02:55:50.422Z,3.40
2022-09-16T02:58:17.391Z,3.40
2022-09-16T03:00:49.049Z,3.37
2022-09-16T03:03:16.185Z,3.13
2022-09-16T03:06:10.648Z,2.70
2022-09-16T03:08:38.805Z,3.00
2022-09-16T03:11:29.954Z,3.60
2022-09-16T03:14:15.788Z,2.60
2022-09-16T03:16:53.649Z,3.00
2022-09-16T03:19:48.517Z,3.07
2022-09-16T03:22:30.123Z,2.80
2022-09-16T03:25:23.437Z,2.50
2022-09-16T03:28:12.096Z,2.73
2022-09-16T03:30:49.184Z,2.97
2022-09-16T03:33:30.110Z,2.77
2022-09-16T03:36:03.488Z,3.23
2022-09-16T03:38:31.866Z,2.50
2022-09-16T03:41:02.784Z,2.20
2022-09-16T03:43:30.978Z,2.70
2022-09-16T03:45:59.553Z,2.30
2022-09-16T03:48:26.812Z,2.50
2022-09-16T03:50:54.254Z,2.70
2022-09-16T03:53:20.913Z,2.53
2022-09-16T03:55:50.373Z,2.90
2022-09-16T03:58:17.453Z,2.50
2022-09-16T04:00:50.927Z,2.77
2022-09-16T04:03:17.968Z,2.30
2022-09-16T04:05:44.693Z,2.50
2022-09-16T04:08:12.123Z,2.50
2022-09-16T04:10:38.968Z,2.57
2022-09-16T04:13:05.685Z,2.40
2022-09-16T04:15:37.214Z,2.63
2022-09-16T04:18:04.598Z,2.60
2022-09-16T04:20:31.335Z,2.63
2022-09-16T04:22:57.989Z,2.20
2022-09-16T04:25:37.493Z,2.60
2022-09-16T04:28:04.225Z,2.50
2022-09-16T04:30:32.309Z,2.27
2022-09-16T04:33:00.603Z,2.03
2022-09-16T04:35:27.354Z,2.27
2022-09-16T04:37:54.262Z,2.30
2022-09-16T04:40:25.240Z,2.00
2022-09-16T04:42:53.268Z,2.00
2022-09-16T04:45:20.043Z,2.13
2022-09-16T04:47:46.853Z,1.77
2022-09-16T04:50:14.492Z,1.93
2022-09-16T04:52:48.191Z,1.80
2022-09-16T04:55:15.667Z,1.83
2022-09-16T04:57:43.066Z,1.80
2022-09-16T05:00:11.483Z,1.73
2022-09-16T05:02:41.323Z,1.80
2022-09-16T05:05:08.261Z,1.60
2022-09-16T05:07:36.503Z,1.90
2022-09-16T05:10:06.992Z,1.80
2022-09-16T05:12:34.166Z,1.80
2022-09-16T05:15:00.850Z,1.40
2022-09-16T05:17:49.923Z,1.60
2022-09-16T05:20:17.674Z,1.63
2022-09-16T05:22:45.373Z,1.50
2022-09-16T05:25:13.333Z,1.73
2022-09-16T05:27:41.245Z,1.67
2022-09-16T05:30:11.333Z,1.60
2022-09-16T05:32:38.163Z,1.50
2022-09-16T05:35:07.077Z,1.50
2022-09-16T05:37:34.192Z,1.43
2022-09-16T05:40:00.958Z,1.40
2022-09-16T05:42:29.710Z,1.50
2022-09-16T05:44:56.388Z,1.47
2022-09-16T05:47:23.043Z,1.60
2022-09-16T05:49:54.745Z,1.40
2022-09-16T05:52:25.437Z,1.70
2022-09-16T05:54:52.598Z,1.50
2022-09-16T05:57:21.682Z,1.40
2022-09-16T05:59:48.625Z,1.30
2022-09-16T06:02:16.676Z,1.30
2022-09-16T06:04:43.689Z,1.20
2022-09-16T06:07:11.004Z,1.13
2022-09-16T06:09:38.648Z,1.30
2022-09-16T06:12:06.928Z,1.33
2022-09-16T06:14:33.684Z,1.40
2022-09-16T06:17:00.440Z,1.40
2022-09-16T06:19:27.554Z,1.37
2022-09-16T06:21:55.465Z,1.30
2022-09-16T06:24:25.236Z,1.20
2022-09-16T06:26:51.968Z,1.60
2022-09-16T06:29:19.341Z,1.30
2022-09-16T06:31:55.333Z,1.20
2022-09-16T06:34:26.676Z,1.20
2022-09-16T06:36:54.027Z,1.20
2022-09-16T06:39:24.588Z,1.30
2022-09-16T06:41:51.891Z,1.40
2022-09-16T06:44:19.846Z,1.30
2022-09-16T06:46:46.977Z,1.20
2022-09-16T06:49:14.985Z,1.50
2022-09-16T06:51:42.077Z,1.07
2022-09-16T06:54:11.919Z,1.10
2022-09-16T06:56:41.118Z,1.33
2022-09-16T06:59:08.611Z,1.30
2022-09-16T07:01:36.068Z,1.20
2022-09-16T07:04:05.511Z,1.30
2022-09-16T07:07:04.862Z,2.93
2022-09-16T07:09:32.376Z,2.80
2022-09-16T07:11:59.352Z,6.73
2022-09-16T07:14:27.980Z,5.63
2022-09-16T07:16:55.742Z,2.67
2022-09-16T07:19:22.712Z,1.53
2022-09-16T07:21:49.810Z,1.20
2022-09-16T07:24:16.713Z,2.10
2022-09-16T07:26:45.040Z,1.73
2022-09-16T07:29:15.233Z,1.30
2022-09-16T07:31:44.415Z,1.40
2022-09-16T07:34:14.709Z,1.07
2022-09-16T07:36:46.848Z,1.03
2022-09-16T07:39:17.957Z,2.00
2022-09-16T07:41:52.682Z,1.53
2022-09-16T07:44:20.687Z,1.20
2022-09-16T07:46:48.344Z,1.20
2022-09-16T07:49:17.560Z,1.27
2022-09-16T07:51:45.535Z,1.83
2022-09-16T07:54:15.775Z,1.20
2022-09-16T07:56:44.484Z,1.40
2022-09-16T07:59:18.308Z,0.97
2022-09-16T08:01:49.673Z,0.80
2022-09-16T08:04:19.562Z,1.10
2022-09-16T08:06:46.460Z,1.00
2022-09-16T08:12:02.704Z,0.90
2022-09-16T08:14:29.476Z,0.90
2022-09-16T08:16:59.292Z,1.10
2022-09-16T08:19:26.132Z,1.37
2022-09-16T08:21:54.729Z,1.00
2022-09-16T08:24:21.580Z,0.70
2022-09-16T08:26:48.383Z,1.05
2022-09-16T08:29:16.821Z,1.08
2022-09-16T08:31:44.543Z,0.80
2022-09-16T08:34:11.268Z,0.70
2022-09-16T08:36:37.977Z,0.80
2022-09-16T08:39:04.779Z,0.93
2022-09-16T08:41:44.542Z,0.88
2022-09-16T08:44:43.103Z,1.00
2022-09-16T08:47:42.664Z,1.10
2022-09-16T08:50:31.711Z,0.87
2022-09-16T08:53:07.297Z,0.95
2022-09-16T08:55:40.971Z,0.70
2022-09-16T08:58:37.546Z,0.90
2022-09-16T09:01:17.787Z,0.70
2022-09-16T09:03:46.570Z,0.82
2022-09-16T09:06:31.564Z,0.73
2022-09-16T09:09:17.037Z,1.00
2022-09-16T09:12:08.473Z,0.80
2022-09-16T09:14:59.222Z,0.90
2022-09-16T09:17:37.261Z,0.88
2022-09-16T09:20:26.558Z,0.80
2022-09-16T09:23:12.056Z,1.15
2022-09-16T09:25:57.843Z,0.80
2022-09-16T09:28:45.753Z,0.80
2022-09-16T09:31:29.640Z,0.80
2022-09-16T09:34:34.165Z,1.17
2022-09-16T09:37:44.807Z,1.00
2022-09-16T09:40:16.415Z,0.98
2022-09-16T09:42:53.548Z,1.30
2022-09-16T09:45:35.723Z,1.40
2022-09-16T09:48:21.179Z,1.10
2022-09-16T09:50:49.706Z,0.88
2022-09-16T09:53:28.089Z,1.38
2022-09-16T09:56:51.256Z,0.82
2022-09-16T09:59:47.097Z,0.63
2022-09-16T10:02:21.950Z,1.10
2022-09-16T10:04:51.881Z,2.03
2022-09-16T10:07:22.164Z,1.90
2022-09-16T10:09:55.308Z,0.80
2022-09-16T10:12:36.104Z,1.10
2022-09-16T10:15:04.633Z,1.20
2022-09-16T10:17:32.867Z,0.97
2022-09-16T10:20:20.828Z,0.67
2022-09-16T10:23:00.687Z,1.00
2022-09-16T10:25:32.104Z,0.90
2022-09-16T10:28:01.317Z,0.90
2022-09-16T10:30:33.257Z,1.30
2022-09-16T10:33:24.666Z,1.48
2022-09-16T10:35:57.796Z,1.13
2022-09-16T10:38:34.812Z,1.40
2022-09-16T10:41:14.744Z,1.20
2022-09-16T10:43:59.639Z,1.00
2022-09-16T10:46:27.818Z,1.00
2022-09-16T10:49:00.734Z,0.75
2022-09-16T10:51:34.297Z,0.87
2022-09-16T10:54:07.323Z,0.70
2022-09-16T10:57:11.377Z,0.67
2022-09-16T11:00:13.568Z,0.60
2022-09-16T11:02:59.430Z,0.60
2022-09-16T11:05:44.613Z,0.77
2022-09-16T11:08:30.649Z,0.80
2022-09-16T11:11:35.234Z,0.60
2022-09-16T11:14:39.378Z,0.83
2022-09-16T11:17:18.307Z,1.00
2022-09-16T11:20:02.821Z,1.10
2022-09-16T11:22:46.510Z,0.87
2022-09-16T11:25:34.165Z,0.87
2022-09-16T11:28:37.788Z,1.30
2022-09-16T11:31:13.223Z,1.13
2022-09-16T11:34:01.655Z,1.13
2022-09-16T11:36:58.491Z,0.93
2022-09-16T11:39:46.280Z,0.70
2022-09-16T11:42:33.284Z,1.10
2022-09-16T11:45:20.511Z,1.00
2022-09-16T11:48:06.005Z,1.00
2022-09-16T11:51:11.499Z,0.88
2022-09-16T11:53:57.179Z,0.65
2022-09-16T11:56:35.242Z,0.80
2022-09-16T11:59:40.960Z,0.52
2022-09-16T12:02:29.426Z,1.13
2022-09-16T12:05:23.138Z,1.00
2022-09-16T12:08:24.769Z,0.75
2022-09-16T12:10:59.799Z,0.70
2022-09-16T12:13:39.744Z,0.50
2022-09-16T12:16:18.809Z,0.60
2022-09-16T12:18:53.335Z,0.47
2022-09-16T12:21:57.996Z,0.40
2022-09-16T12:24:41.716Z,0.57
2022-09-16T12:27:35.020Z,0.60
2022-09-16T12:30:18.330Z,0.43
2022-09-16T12:32:53.083Z,0.60
2022-09-16T12:38:01.901Z,0.70
2022-09-16T12:40:43.540Z,0.80
2022-09-16T12:43:13.328Z,0.80
2022-09-16T12:46:19.965Z,0.43
2022-09-16T12:49:03.586Z,0.60
2022-09-16T12:51:48.296Z,0.80
2022-09-16T12:55:06.575Z,0.87
2022-09-16T12:58:08.341Z,0.90
2022-09-16T13:00:38.761Z,0.97
2022-09-16T13:03:16.973Z,0.60
2022-09-16T13:05:50.494Z,0.63
2022-09-16T13:08:29.972Z,0.60
2022-09-16T13:11:47.241Z,0.60
2022-09-16T13:13:56.437Z,0.57
2022-09-16T13:16:35.747Z,0.47
2022-09-16T13:19:25.843Z,0.40
2022-09-16T13:22:06.260Z,0.20
2022-09-16T13:24:54.774Z,0.30
2022-09-16T13:27:24.643Z,0.30
2022-09-16T13:29:51.761Z,0.20
2022-09-16T13:32:27.236Z,0.20
2022-09-16T13:35:02.005Z,0.20
2022-09-16T13:37:28.884Z,0.33
2022-09-16T13:39:55.575Z,0.20
2022-09-16T13:42:24.814Z,0.20
2022-09-16T13:44:52.883Z,0.20
2022-09-16T13:47:35.046Z,0.30
2022-09-16T13:50:13.033Z,0.20
2022-09-16T13:52:41.170Z,0.20
2022-09-16T13:55:21.026Z,0.30
2022-09-16T13:58:08.382Z,0.20
2022-09-16T14:00:50.396Z,0.30
2022-09-16T14:03:37.074Z,0.20
2022-09-16T14:06:37.911Z,0.20
2022-09-16T14:09:04.544Z,0.20
2022-09-16T14:11:53.761Z,0.40
2022-09-16T14:17:32.932Z,0.50
2022-09-16T14:20:01.204Z,0.60
2022-09-16T14:22:28.910Z,0.50
2022-09-16T14:25:06.107Z,0.60
2022-09-16T14:27:43.395Z,0.50
2022-09-16T14:30:32.847Z,0.60
2022-09-16T14:33:04.366Z,0.60
2022-09-16T14:35:33.379Z,0.50
2022-09-16T14:40:53.586Z,0.30
2022-09-16T14:43:21.856Z,0.30
2022-09-16T14:45:54.438Z,0.40
2022-09-16T14:48:28.528Z,0.50
2022-09-16T14:50:56.106Z,0.30
2022-09-16T14:53:38.054Z,0.50
2022-09-16T14:56:05.671Z,0.40
2022-09-16T14:58:34.782Z,0.40
2022-09-16T15:01:12.091Z,0.70
2022-09-16T15:03:44.370Z,0.67
2022-09-16T15:06:19.137Z,0.40
2022-09-16T15:08:57.438Z,0.30
2022-09-16T15:11:48.617Z,0.37
2022-09-16T15:14:21.594Z,0.30
2022-09-16T15:16:56.208Z,0.60
2022-09-16T15:19:31.491Z,0.43
2022-09-16T15:21:58.447Z,0.40
2022-09-16T15:24:33.703Z,0.50
2022-09-16T15:27:01.629Z,0.60
2022-09-16T15:29:35.090Z,0.57
2022-09-16T15:32:21.609Z,0.53
2022-09-16T15:34:49.583Z,0.47
2022-09-16T15:37:49.764Z,0.60
2022-09-16T15:40:20.609Z,0.50
2022-09-16T15:43:02.628Z,0.50
2022-09-16T15:45:30.777Z,0.73
2022-09-16T15:48:11.218Z,0.80
2022-09-16T15:50:44.642Z,0.70
2022-09-16T15:53:32.074Z,0.83
2022-09-16T15:56:05.727Z,0.70
2022-09-16T15:58:33.090Z,0.50
2022-09-16T16:01:20.820Z,0.70
2022-09-16T16:03:54.921Z,0.50
2022-09-16T16:06:56.852Z,0.90
2022-09-16T16:09:27.024Z,1.10
2022-09-16T16:11:58.770Z,1.10
2022-09-16T16:14:34.177Z,0.97
2022-09-16T16:17:19.063Z,0.83
2022-09-16T16:19:48.149Z,0.80
2022-09-16T16:22:18.141Z,0.90
2022-09-16T16:24:45.455Z,0.70
2022-09-16T16:27:12.222Z,0.70
2022-09-16T16:29:41.313Z,0.90
2022-09-16T16:32:11.539Z,0.90
2022-09-16T16:34:48.248Z,0.80
2022-09-16T16:37:33.796Z,0.97
2022-09-16T16:40:06.224Z,0.70
2022-09-16T16:42:36.082Z,1.00
2022-09-16T16:45:07.231Z,0.70
2022-09-16T16:47:34.861Z,0.53
2022-09-16T16:50:02.095Z,0.40
2022-09-16T16:52:29.632Z,0.30
2022-09-16T16:54:56.361Z,0.27
2022-09-16T16:57:25.201Z,0.20
2022-09-16T16:59:52.218Z,0.30
2022-09-16T17:02:20.481Z,0.23
2022-09-16T17:04:53.028Z,0.30
2022-09-16T17:07:26.175Z,0.30
2022-09-16T17:09:54.081Z,0.50
2022-09-16T17:12:20.840Z,0.30
2022-09-16T17:14:48.346Z,0.40
2022-09-16T17:17:15.347Z,0.40
2022-09-16T17:19:42.245Z,0.40
2022-09-16T17:22:10.597Z,0.40
2022-09-16T17:24:39.244Z,0.50
2022-09-16T17:27:06.062Z,0.23
2022-09-16T17:29:32.805Z,0.30
2022-09-16T17:32:05.344Z,0.30
2022-09-16T17:34:32.604Z,0.40
2022-09-16T17:37:04.162Z,0.33
2022-09-16T17:39:32.165Z,0.30
2022-09-16T17:42:02.772Z,0.40
2022-09-16T17:44:29.517Z,0.40
2022-09-16T17:46:56.217Z,0.40
2022-09-16T17:49:24.614Z,0.53
2022-09-16T17:51:53.902Z,0.40
2022-09-16T17:54:21.908Z,0.40
2022-09-16T17:56:51.202Z,0.50
2022-09-16T17:59:19.177Z,0.60
2022-09-16T18:01:46.659Z,0.30
2022-09-16T18:04:14.934Z,0.40
2022-09-16T18:06:45.453Z,0.47
2022-09-16T18:09:14.567Z,0.40
2022-09-16T18:11:43.032Z,0.60
2022-09-16T18:14:12.072Z,0.30
2022-09-16T18:16:40.432Z,0.60
2022-09-16T18:19:08.382Z,0.33
2022-09-16T18:21:38.396Z,0.40
2022-09-16T18:24:10.941Z,0.30
2022-09-16T18:26:38.753Z,0.40
2022-09-16T18:29:11.808Z,0.37
2022-09-16T18:31:44.653Z,0.50
2022-09-16T18:34:12.583Z,0.40
2022-09-16T18:36:43.119Z,0.40
2022-09-16T18:39:18.895Z,0.50
2022-09-16T18:41:46.382Z,0.53
2022-09-16T18:44:17.249Z,0.50
2022-09-16T18:46:45.765Z,0.40
2022-09-16T18:49:15.036Z,0.60
2022-09-16T18:51:50.920Z,0.40
2022-09-16T18:54:29.399Z,0.40
2022-09-16T18:56:57.754Z,0.30
2022-09-16T18:59:28.644Z,0.40
2022-09-16T19:01:58.598Z,0.40
2022-09-16T19:04:32.463Z,0.50
2022-09-16T19:07:07.942Z,0.63
2022-09-16T19:09:42.443Z,0.80
2022-09-16T19:12:11.003Z,0.60
2022-09-16T19:14:38.612Z,0.57
2022-09-16T19:17:05.714Z,0.60
2022-09-16T19:19:33.598Z,0.70
2022-09-16T19:22:05.269Z,0.70
2022-09-16T19:24:33.159Z,0.70
2022-09-16T19:27:03.341Z,0.60
2022-09-16T19:29:30.868Z,0.60
2022-09-16T19:31:58.922Z,0.70
2022-09-16T19:34:25.741Z,0.87
2022-09-16T19:36:55.055Z,0.60
2022-09-16T19:39:24.853Z,0.63
2022-09-16T19:41:53.236Z,0.60
2022-09-16T19:44:21.278Z,0.60
2022-09-16T19:46:49.512Z,0.70
2022-09-16T19:49:19.938Z,0.57
2022-09-16T19:51:48.200Z,0.67
2022-09-16T19:54:15.924Z,0.67
2022-09-16T19:56:45.898Z,0.67
2022-09-16T19:59:15.446Z,0.70
2022-09-16T20:01:42.285Z,0.90
2022-09-16T20:04:12.351Z,0.90
2022-09-16T20:06:41.646Z,0.70
2022-09-16T20:09:14.211Z,0.80
2022-09-16T20:11:47.620Z,0.50
2022-09-16T20:14:20.640Z,0.60
2022-09-16T20:16:52.964Z,0.67
2022-09-16T20:19:24.765Z,0.53
2022-09-16T20:21:53.767Z,0.40
2022-09-16T20:24:25.989Z,0.60
2022-09-16T20:26:58.708Z,0.47
2022-09-16T20:29:35.993Z,0.57
2022-09-16T20:32:09.889Z,0.40
2022-09-16T20:34:36.899Z,0.20
2022-09-16T20:37:05.861Z,0.40
2022-09-16T20:39:34.338Z,0.30
2022-09-16T20:42:01.432Z,0.40
2022-09-16T20:44:28.794Z,0.40
2022-09-16T20:46:58.657Z,0.33
2022-09-16T20:49:40.579Z,0.40
2022-09-16T20:52:07.826Z,0.40
2022-09-16T20:54:36.146Z,0.30
2022-09-16T20:57:03.601Z,0.30
2022-09-16T20:59:36.762Z,0.23
2022-09-16T21:02:06.308Z,0.20
2022-09-16T21:04:33.540Z,0.40
2022-09-16T21:07:02.093Z,0.37
2022-09-16T21:14:14.521Z,0.40
2022-09-16T21:16:42.868Z,0.47
2022-09-16T21:19:12.652Z,0.30
2022-09-16T21:21:44.762Z,0.30
2022-09-16T21:24:16.558Z,0.30
2022-09-16T21:26:46.629Z,0.33
2022-09-16T21:29:21.537Z,0.20
2022-09-16T21:31:50.464Z,0.30
2022-09-16T21:34:21.320Z,0.40
2022-09-16T21:36:50.510Z,0.40
2022-09-16T21:39:22.563Z,0.37
2022-09-16T21:41:51.706Z,0.30
2022-09-16T21:44:19.567Z,0.40
2022-09-16T21:46:47.067Z,0.30
2022-09-16T21:49:30.206Z,0.50
2022-09-16T21:52:06.795Z,0.40
2022-09-16T21:54:41.200Z,0.50
2022-09-16T21:57:14.401Z,0.40
2022-09-16T21:59:43.594Z,0.40
2022-09-16T22:02:12.823Z,0.50
2022-09-16T22:04:39.535Z,0.50
2022-09-16T22:07:11.063Z,0.50
2022-09-16T22:09:38.383Z,1.00
2022-09-16T22:12:08.286Z,0.40
2022-09-16T22:14:37.307Z,0.60
2022-09-16T22:17:07.206Z,0.53
2022-09-16T22:19:35.040Z,0.43
2022-09-16T22:22:11.180Z,0.57
2022-09-16T22:24:39.505Z,0.80
2022-09-16T22:27:08.596Z,0.60
2022-09-16T22:29:37.624Z,0.53
2022-09-16T22:32:08.945Z,0.70
2022-09-16T22:34:40.848Z,1.10
2022-09-16T22:37:10.660Z,0.90
2022-09-16T22:39:41.140Z,0.90
2022-09-16T22:42:07.773Z,1.00
2022-09-16T22:44:37.187Z,0.93
2022-09-16T22:47:06.677Z,1.20
2022-09-16T22:49:35.910Z,1.00
2022-09-16T22:52:04.125Z,1.13
2022-09-16T22:54:35.107Z,1.30
2022-09-16T22:57:06.139Z,1.27
2022-09-16T22:59:35.639Z,1.10
2022-09-16T23:02:02.453Z,1.13
2022-09-16T23:04:33.715Z,1.27
2022-09-16T23:07:01.496Z,1.00
2022-09-16T23:09:28.726Z,1.20
2022-09-16T23:11:56.831Z,1.37
2022-09-16T23:14:26.215Z,1.10
2022-09-16T23:16:56.606Z,1.37
2022-09-16T23:19:38.687Z,1.00
2022-09-16T23:22:08.457Z,1.20
2022-09-16T23:24:35.899Z,0.70
2022-09-16T23:27:08.169Z,0.70
2022-09-16T23:29:36.229Z,0.90
2022-09-16T23:32:04.849Z,0.70
2022-09-16T23:34:34.149Z,0.90
2022-09-16T23:37:02.365Z,0.80
2022-09-16T23:39:32.342Z,0.73
2022-09-16T23:42:01.807Z,0.77
2022-09-16T23:44:32.400Z,0.80
2022-09-16T23:47:00.197Z,0.80
2022-09-16T23:49:29.747Z,0.70
2022-09-16T23:52:03.701Z,0.87
2022-09-16T23:54:37.691Z,0.73
2022-09-16T23:57:06.782Z,0.80
2022-09-16T23:59:34.932Z,0.77
